LTBA/IST METAR and TAF weather

Enter ICAO airport designator
Station Type Date Time Source
LTBA METAR 2022/12/04 10:50 UTC NOAA

LTBA 041050Z 03015KT 9999 SCT017 BKN028 12/08 Q1026


Station Type Date Time Source
LTBA Decoded METAR 2022/12/04 10:50 UTC NOAA

Istanbul / Ataturk, Turkey (LTBA) 40-58N 028-49E 37M
Dec 04, 2022 - 05:50 AM EST / 2022.12.04 1050 UTC
Wind: from the NNE (030 degrees) at 17 MPH (15 KT):0
Visibility: greater than 7 mile(s):0
Sky conditions: mostly cloudy
Temperature: 53 F (12 C)
Dew Point: 46 F (8 C)
Relative Humidity: 76%
Pressure (altimeter): 30.30 in. Hg (1026 hPa)
ob: LTBA 041050Z 03015KT 9999 SCT017 BKN028 12/08 Q1026
cycle: 11

Station Type Date Time Source
LTBA TAF 2022/12/04 12:03 UTC NOAA

TAF LTBA 041040Z 0412/0512 03014KT 9999 SCT015 BKN035
BECMG 0416/0419 SCT035 BKN100
BECMG 0420/0423 03004KT
BECMG 0500/0503 SCT012 BKN025

Example: see airport list